createdAt,value
2022-09-07T00:02:24.032Z,80.70
2022-09-07T00:04:50.719Z,80.10
2022-09-07T00:07:17.450Z,80.40
2022-09-07T00:09:44.366Z,80.50
2022-09-07T00:12:11.094Z,80.20
2022-09-07T00:14:37.827Z,80.60
2022-09-07T00:17:04.584Z,81.40
2022-09-07T00:19:31.356Z,81.10
2022-09-07T00:21:58.078Z,80.60
2022-09-07T00:24:24.856Z,80.60
2022-09-07T00:26:55.548Z,80.60
2022-09-07T00:29:22.698Z,80.30
2022-09-07T00:31:49.442Z,80.20
2022-09-07T00:34:16.261Z,80.40
2022-09-07T00:36:42.968Z,80.30
2022-09-07T00:39:09.753Z,80.50
2022-09-07T00:41:36.516Z,80.30
2022-09-07T00:44:40.473Z,80.40
2022-09-07T00:47:15.812Z,80.90
2022-09-07T00:49:45.759Z,80.60
2022-09-07T00:52:13.942Z,80.40
2022-09-07T00:54:45.601Z,79.70
2022-09-07T00:57:13.275Z,79.20
2022-09-07T00:59:50.035Z,78.90
2022-09-07T01:02:18.007Z,78.90
2022-09-07T01:04:48.177Z,78.80
2022-09-07T01:07:14.941Z,78.80
2022-09-07T01:09:42.961Z,78.90
2022-09-07T01:12:09.838Z,78.60
2022-09-07T01:14:42.295Z,78.30
2022-09-07T01:17:27.392Z,78.40
2022-09-07T01:20:28.610Z,78.10
2022-09-07T01:23:22.935Z,77.30
2022-09-07T01:26:43.817Z,77.00
2022-09-07T01:29:19.241Z,77.30
2022-09-07T01:32:05.394Z,77.40
2022-09-07T01:34:32.442Z,77.20
2022-09-07T01:37:10.392Z,77.40
2022-09-07T01:39:52.747Z,77.50
2022-09-07T01:42:24.474Z,77.60
2022-09-07T01:44:57.962Z,77.30
2022-09-07T01:47:32.055Z,77.50
2022-09-07T01:50:11.907Z,77.80
2022-09-07T01:52:47.253Z,78.00
2022-09-07T01:55:27.326Z,78.00
2022-09-07T01:58:00.124Z,78.00
2022-09-07T02:00:27.274Z,78.20
2022-09-07T02:03:15.629Z,78.40
2022-09-07T02:05:58.661Z,78.20
2022-09-07T02:08:37.568Z,78.20
2022-09-07T02:11:12.965Z,78.30
2022-09-07T02:13:50.927Z,78.10
2022-09-07T02:16:26.098Z,78.50
2022-09-07T02:19:01.112Z,78.40
2022-09-07T02:21:45.453Z,79.10
2022-09-07T02:24:37.675Z,79.20
2022-09-07T02:27:11.109Z,78.80
2022-09-07T02:29:38.450Z,78.40
2022-09-07T02:32:05.609Z,78.30
2022-09-07T02:34:33.396Z,78.20
2022-09-07T02:37:02.070Z,78.30
2022-09-07T02:39:28.941Z,78.90
2022-09-07T02:41:55.709Z,79.00
2022-09-07T02:44:27.771Z,78.70
2022-09-07T02:47:14.378Z,79.30
2022-09-07T02:50:08.362Z,79.70
2022-09-07T02:52:52.718Z,79.50
2022-09-07T02:55:44.901Z,79.60
2022-09-07T02:58:40.269Z,80.00
2022-09-07T03:01:33.157Z,79.50
2022-09-07T03:04:05.718Z,79.60
2022-09-07T03:06:43.022Z,79.70
2022-09-07T03:09:22.411Z,79.60
2022-09-07T03:11:49.772Z,80.00
2022-09-07T03:14:19.307Z,80.20
2022-09-07T03:16:49.195Z,80.30
2022-09-07T03:19:16.087Z,80.20
2022-09-07T03:21:43.596Z,80.20
2022-09-07T03:24:10.694Z,80.20
2022-09-07T03:26:42.700Z,80.50
2022-09-07T03:29:09.453Z,80.20
2022-09-07T03:31:36.483Z,80.30
2022-09-07T03:34:03.335Z,80.30
2022-09-07T03:36:31.468Z,80.70
2022-09-07T03:39:01.129Z,80.70
2022-09-07T03:41:28.782Z,80.50
2022-09-07T03:43:55.529Z,81.10
2022-09-07T03:46:22.358Z,81.20
2022-09-07T03:48:49.605Z,80.90
2022-09-07T03:51:18.008Z,80.40
2022-09-07T03:53:46.842Z,80.70
2022-09-07T03:56:19.552Z,80.80
2022-09-07T03:58:48.241Z,80.30
2022-09-07T04:01:18.395Z,79.90
2022-09-07T04:03:46.278Z,80.30
2022-09-07T04:06:13.409Z,80.60
2022-09-07T04:08:41.653Z,80.50
2022-09-07T04:11:12.698Z,80.70
2022-09-07T04:13:39.520Z,80.80
2022-09-07T04:16:14.750Z,81.10
2022-09-07T04:18:41.822Z,80.70
2022-09-07T04:21:09.241Z,81.30
2022-09-07T04:23:39.030Z,81.50
2022-09-07T04:26:06.184Z,81.50
2022-09-07T04:28:32.901Z,80.80
2022-09-07T04:31:02.842Z,80.50
2022-09-07T04:33:33.438Z,80.40
2022-09-07T04:36:01.304Z,80.50
2022-09-07T04:38:29.060Z,80.50
2022-09-07T04:41:06.536Z,80.40
2022-09-07T04:43:33.525Z,80.80
2022-09-07T04:46:10.776Z,80.60
2022-09-07T04:48:37.554Z,80.00
2022-09-07T04:51:09.814Z,79.50
2022-09-07T04:53:38.290Z,79.90
2022-09-07T04:56:06.497Z,80.10
2022-09-07T04:58:33.370Z,80.30
2022-09-07T05:01:05.303Z,80.50
2022-09-07T05:03:35.113Z,80.80
2022-09-07T05:06:02.712Z,81.00
2022-09-07T05:08:30.161Z,80.70
2022-09-07T05:10:59.693Z,80.20
2022-09-07T05:13:26.380Z,79.50
2022-09-07T05:15:53.097Z,80.00
2022-09-07T05:18:20.201Z,79.90
2022-09-07T05:20:46.889Z,79.40
2022-09-07T05:23:14.120Z,79.20
2022-09-07T05:25:45.397Z,79.20
2022-09-07T05:28:17.212Z,79.70
2022-09-07T05:36:21.357Z,78.70
2022-09-07T05:38:48.149Z,78.60
2022-09-07T05:41:21.175Z,78.10
2022-09-07T05:46:35.752Z,77.50
2022-09-07T05:49:03.572Z,78.10
2022-09-07T05:51:30.320Z,78.20
2022-09-07T05:53:57.528Z,78.10
2022-09-07T05:56:24.244Z,78.10
2022-09-07T05:58:50.941Z,77.50
2022-09-07T06:01:18.181Z,77.00
2022-09-07T06:03:45.502Z,77.30
2022-09-07T06:06:14.676Z,76.80
2022-09-07T06:08:50.004Z,77.30
2022-09-07T06:11:19.707Z,76.70
2022-09-07T06:13:46.496Z,74.70
2022-09-07T06:16:14.302Z,74.20
2022-09-07T06:18:43.178Z,73.50
2022-09-07T06:21:12.753Z,72.60
2022-09-07T06:23:41.228Z,71.80
2022-09-07T06:26:09.118Z,71.40
2022-09-07T06:28:37.961Z,71.00
2022-09-07T06:31:10.814Z,70.30
2022-09-07T06:33:38.383Z,71.00
2022-09-07T06:36:07.790Z,70.50
2022-09-07T06:38:37.448Z,70.30
2022-09-07T06:43:54.674Z,70.50
2022-09-07T06:49:08.763Z,70.50
2022-09-07T06:51:35.460Z,70.70
2022-09-07T06:56:48.962Z,69.70
2022-09-07T06:59:15.681Z,69.40
2022-09-07T07:01:42.429Z,69.10
2022-09-07T07:04:09.184Z,69.70
2022-09-07T07:06:37.946Z,69.60
2022-09-07T07:09:06.588Z,69.40
2022-09-07T07:11:33.388Z,69.70
2022-09-07T07:14:00.525Z,69.40
2022-09-07T07:16:27.337Z,69.90
2022-09-07T07:18:57.430Z,69.90
2022-09-07T07:21:24.148Z,70.20
2022-09-07T07:23:52.593Z,69.90
2022-09-07T07:26:21.878Z,69.10
2022-09-07T07:29:06.557Z,69.60
2022-09-07T07:31:34.942Z,68.90
2022-09-07T07:34:03.746Z,68.60
2022-09-07T07:36:30.847Z,68.00
2022-09-07T07:44:18.631Z,69.10
2022-09-07T07:46:49.104Z,69.30
2022-09-07T07:49:16.065Z,69.60
2022-09-07T07:54:29.375Z,69.80
2022-09-07T07:56:56.229Z,70.00
2022-09-07T07:59:23.294Z,70.00
2022-09-07T08:01:50.146Z,69.40
2022-09-07T08:04:17.043Z,69.60
2022-09-07T08:06:43.945Z,69.90
2022-09-07T08:09:13.583Z,69.50
2022-09-07T08:11:40.499Z,69.50
2022-09-07T08:14:08.536Z,68.80
2022-09-07T08:16:36.202Z,68.70
2022-09-07T08:19:03.363Z,68.10
2022-09-07T08:21:30.188Z,68.60
2022-09-07T08:23:56.885Z,68.10
2022-09-07T08:26:23.641Z,68.60
2022-09-07T08:28:50.292Z,68.80
2022-09-07T08:31:17.599Z,68.50
2022-09-07T08:33:45.114Z,68.60
2022-09-07T08:36:14.674Z,68.30
2022-09-07T08:38:41.369Z,68.20
2022-09-07T08:41:34.859Z,67.70
2022-09-07T08:44:31.292Z,67.30
2022-09-07T08:47:20.330Z,67.20
2022-09-07T08:50:06.337Z,66.60
2022-09-07T08:52:53.801Z,66.40
2022-09-07T08:55:28.429Z,65.90
2022-09-07T08:58:48.712Z,66.00
2022-09-07T09:01:31.016Z,65.40
2022-09-07T09:07:08.698Z,65.50
2022-09-07T09:10:19.686Z,66.00
2022-09-07T09:13:03.654Z,66.90
2022-09-07T09:15:40.751Z,64.50
2022-09-07T09:18:57.583Z,63.20
2022-09-07T09:21:27.078Z,64.20
2022-09-07T09:24:00.363Z,63.50
2022-09-07T09:26:29.668Z,65.00
2022-09-07T09:28:57.388Z,64.30
2022-09-07T09:31:28.780Z,63.70
2022-09-07T09:34:17.614Z,65.10
2022-09-07T09:36:52.540Z,64.20
2022-09-07T09:39:36.995Z,64.80
2022-09-07T09:42:22.288Z,65.30
2022-09-07T09:44:50.072Z,65.70
2022-09-07T09:47:36.096Z,65.70
2022-09-07T09:52:29.082Z,64.20
2022-09-07T09:53:06.068Z,64.40
2022-09-07T09:55:36.932Z,65.00
2022-09-07T10:01:26.831Z,63.50
2022-09-07T10:06:25.956Z,63.60
2022-09-07T10:08:58.111Z,64.00
2022-09-07T10:14:46.678Z,63.20
2022-09-07T10:17:33.452Z,63.60
2022-09-07T10:20:19.900Z,63.60
2022-09-07T10:22:58.255Z,63.50
2022-09-07T10:25:39.580Z,62.70
2022-09-07T10:28:15.343Z,63.70
2022-09-07T10:31:15.739Z,63.30
2022-09-07T10:37:11.405Z,64.30
2022-09-07T10:39:47.653Z,61.80
2022-09-07T10:42:36.074Z,62.60
2022-09-07T10:45:37.350Z,62.20
2022-09-07T10:48:15.096Z,63.50
2022-09-07T10:50:44.753Z,62.20
2022-09-07T10:53:40.336Z,62.80
2022-09-07T10:56:10.252Z,62.60
2022-09-07T10:59:04.381Z,62.40
2022-09-07T11:01:52.080Z,62.30
2022-09-07T11:04:30.476Z,64.00
2022-09-07T11:07:23.037Z,64.20
2022-09-07T11:09:58.679Z,63.10
2022-09-07T11:12:35.849Z,63.50
2022-09-07T11:15:08.325Z,60.80
2022-09-07T11:17:53.997Z,61.50
2022-09-07T11:20:39.186Z,60.90
2022-09-07T11:23:18.230Z,60.40
2022-09-07T11:26:11.340Z,60.30
2022-09-07T11:31:44.310Z,59.90
2022-09-07T11:34:24.381Z,60.30
2022-09-07T11:37:00.218Z,59.40
2022-09-07T11:39:35.286Z,58.70
2022-09-07T11:45:12.433Z,58.20
2022-09-07T11:47:53.182Z,56.60
2022-09-07T11:50:23.492Z,55.40
2022-09-07T11:53:02.677Z,56.10
2022-09-07T11:55:36.658Z,55.70
2022-09-07T11:58:29.594Z,56.30
2022-09-07T12:01:32.145Z,57.00
2022-09-07T12:04:40.071Z,55.90
2022-09-07T12:07:20.389Z,54.30
2022-09-07T12:10:14.268Z,54.70
2022-09-07T12:13:06.069Z,56.10
2022-09-07T12:15:49.356Z,53.30
2022-09-07T12:18:34.709Z,53.50
2022-09-07T12:21:01.494Z,53.60
2022-09-07T12:23:30.494Z,52.70
2022-09-07T12:26:35.573Z,52.20
2022-09-07T12:29:02.156Z,51.80
2022-09-07T12:32:52.445Z,51.50
2022-09-07T12:34:51.232Z,52.20
2022-09-07T12:37:26.990Z,51.00
2022-09-07T12:40:27.986Z,50.80
2022-09-07T12:43:15.515Z,51.60
2022-09-07T12:45:42.279Z,50.70
2022-09-07T12:48:18.687Z,51.30
2022-09-07T12:50:56.621Z,52.80
2022-09-07T12:53:42.080Z,50.90
2022-09-07T12:56:18.132Z,50.80
2022-09-07T12:59:22.405Z,49.30
2022-09-07T13:02:02.115Z,48.00
2022-09-07T13:04:47.678Z,48.20
2022-09-07T13:07:48.195Z,48.10
2022-09-07T13:10:34.355Z,49.20
2022-09-07T13:13:04.741Z,47.80
2022-09-07T13:15:41.109Z,48.30
2022-09-07T13:18:34.001Z,48.10
2022-09-07T13:21:06.876Z,46.30
2022-09-07T13:23:38.298Z,45.60
2022-09-07T13:26:11.730Z,45.10
2022-09-07T13:28:40.588Z,45.70
2022-09-07T13:31:17.930Z,44.90
2022-09-07T13:33:50.353Z,43.50
2022-09-07T13:36:45.098Z,44.60
2022-09-07T13:39:16.024Z,43.50
2022-09-07T13:41:55.324Z,44.00
2022-09-07T13:44:30.425Z,42.60
2022-09-07T13:47:09.101Z,43.80
2022-09-07T13:50:04.858Z,44.30
2022-09-07T13:52:51.443Z,43.00
2022-09-07T13:55:26.729Z,43.60
2022-09-07T13:58:12.663Z,44.20
2022-09-07T14:01:00.773Z,44.60
2022-09-07T14:03:31.739Z,45.50
2022-09-07T14:06:15.146Z,45.10
2022-09-07T14:08:51.454Z,45.00
2022-09-07T14:11:18.951Z,44.20
2022-09-07T14:13:45.602Z,43.50
2022-09-07T14:16:12.520Z,42.20
2022-09-07T14:18:40.346Z,40.60
2022-09-07T14:21:09.551Z,42.50
2022-09-07T14:23:36.743Z,42.10
2022-09-07T14:26:23.157Z,42.50
2022-09-07T14:28:53.148Z,41.60
2022-09-07T14:31:22.471Z,41.80
2022-09-07T14:33:53.162Z,41.80
2022-09-07T14:36:42.490Z,41.20
2022-09-07T14:39:12.475Z,40.30
2022-09-07T14:41:41.327Z,39.40
2022-09-07T14:44:27.759Z,41.10
2022-09-07T14:46:57.117Z,41.10
2022-09-07T14:49:24.440Z,41.10
2022-09-07T14:51:53.880Z,41.20
2022-09-07T14:54:28.826Z,40.30
2022-09-07T14:57:12.069Z,40.00
2022-09-07T14:59:46.716Z,39.90
2022-09-07T15:02:24.621Z,41.40
2022-09-07T15:05:28.849Z,41.70
2022-09-07T15:08:02.774Z,40.70
2022-09-07T15:10:35.161Z,40.70
2022-09-07T15:13:03.037Z,40.90
2022-09-07T15:15:35.118Z,41.00
2022-09-07T15:18:08.739Z,41.80
2022-09-07T15:20:44.230Z,42.00
2022-09-07T15:23:16.149Z,41.10
2022-09-07T15:25:50.328Z,39.90
2022-09-07T15:34:12.330Z,38.90
2022-09-07T15:36:42.348Z,38.00
2022-09-07T15:39:21.131Z,37.50
2022-09-07T15:41:48.226Z,37.30
2022-09-07T15:44:15.856Z,36.70
2022-09-07T15:47:42.038Z,36.30
2022-09-07T15:49:30.109Z,37.70
2022-09-07T15:52:05.035Z,38.40
2022-09-07T15:54:35.051Z,39.50
2022-09-07T15:59:50.364Z,41.30
2022-09-07T16:05:04.918Z,44.40
2022-09-07T16:10:19.345Z,43.40
2022-09-07T16:13:03.102Z,44.00
2022-09-07T16:15:34.038Z,44.70
2022-09-07T16:18:02.247Z,45.80
2022-09-07T16:20:32.192Z,46.50
2022-09-07T16:23:15.819Z,46.40
2022-09-07T16:25:55.307Z,46.10
2022-09-07T16:28:22.521Z,45.70
2022-09-07T16:30:49.253Z,45.40
2022-09-07T16:33:16.001Z,45.50
2022-09-07T16:35:42.694Z,45.10
2022-09-07T16:40:56.119Z,44.80
2022-09-07T16:43:22.924Z,45.80
2022-09-07T16:46:04.474Z,46.60
2022-09-07T16:48:33.669Z,46.60
2022-09-07T16:51:02.569Z,47.30
2022-09-07T16:53:31.694Z,47.40
2022-09-07T16:56:06.789Z,48.10
2022-09-07T16:58:36.197Z,49.00
2022-09-07T17:01:04.490Z,50.00
2022-09-07T17:03:31.459Z,50.40
2022-09-07T17:06:00.647Z,50.40
2022-09-07T17:08:27.819Z,51.10
2022-09-07T17:11:02.580Z,51.60
2022-09-07T17:13:31.302Z,52.60
2022-09-07T17:16:13.348Z,53.00
2022-09-07T17:21:31.234Z,54.70
2022-09-07T17:23:59.669Z,55.30
2022-09-07T17:26:27.156Z,55.20
2022-09-07T17:28:59.780Z,54.90
2022-09-07T17:34:19.827Z,55.20
2022-09-07T17:36:46.855Z,55.50
2022-09-07T17:39:15.877Z,55.70
2022-09-07T17:41:43.245Z,56.40
2022-09-07T17:44:09.924Z,56.80
2022-09-07T17:46:36.698Z,57.20
2022-09-07T17:49:04.184Z,57.00
2022-09-07T17:51:32.686Z,56.60
2022-09-07T17:54:02.600Z,56.90
2022-09-07T17:56:31.292Z,57.00
2022-09-07T18:02:01.118Z,58.00
2022-09-07T18:04:28.739Z,57.60
2022-09-07T18:06:55.779Z,57.70
2022-09-07T18:09:22.785Z,57.90
2022-09-07T18:11:50.767Z,58.10
2022-09-07T18:14:18.763Z,58.30
2022-09-07T18:16:47.839Z,58.80
2022-09-07T18:19:15.880Z,59.10
2022-09-07T18:21:43.859Z,59.20
2022-09-07T18:24:17.388Z,60.10
2022-09-07T18:26:50.111Z,59.90
2022-09-07T18:29:31.319Z,60.10
2022-09-07T18:32:00.427Z,60.10
2022-09-07T18:34:28.736Z,60.40
2022-09-07T18:36:55.885Z,60.90
2022-09-07T18:39:22.881Z,61.20
2022-09-07T18:41:49.677Z,60.60
2022-09-07T18:47:03.459Z,61.10
2022-09-07T18:49:30.354Z,62.10
2022-09-07T18:54:44.217Z,63.10
2022-09-07T18:57:11.038Z,62.80
2022-09-07T18:59:38.053Z,62.30
2022-09-07T19:02:08.108Z,62.40
2022-09-07T19:07:24.984Z,62.20
2022-09-07T19:09:55.630Z,62.10
2022-09-07T19:12:24.139Z,61.80
2022-09-07T19:14:50.992Z,62.00
2022-09-07T19:17:17.852Z,62.50
2022-09-07T19:19:44.598Z,63.40
2022-09-07T19:22:11.232Z,63.40
2022-09-07T19:24:37.895Z,63.70
2022-09-07T19:27:04.651Z,64.10
2022-09-07T19:29:31.373Z,63.90
2022-09-07T19:32:04.042Z,63.80
2022-09-07T19:34:38.973Z,63.90
2022-09-07T19:37:07.073Z,63.90
2022-09-07T19:39:33.781Z,64.10
2022-09-07T19:42:02.112Z,64.30
2022-09-07T19:44:28.769Z,64.70
2022-09-07T19:46:55.571Z,65.40
2022-09-07T19:49:22.554Z,65.70
2022-09-07T19:51:51.679Z,65.80
2022-09-07T19:54:18.790Z,66.20
2022-09-07T19:56:45.598Z,66.60
2022-09-07T19:59:12.431Z,67.00
2022-09-07T20:01:40.532Z,66.80
2022-09-07T20:04:10.426Z,66.50
2022-09-07T20:06:38.632Z,66.30
2022-09-07T20:09:06.336Z,66.20
2022-09-07T20:11:34.570Z,65.90
2022-09-07T20:14:01.262Z,66.20
2022-09-07T20:16:28.244Z,66.20
2022-09-07T20:18:55.142Z,66.30
2022-09-07T20:21:23.496Z,66.60
2022-09-07T20:23:50.758Z,67.20
2022-09-07T20:26:19.638Z,66.80
2022-09-07T20:28:46.440Z,66.70
2022-09-07T20:31:19.962Z,67.40
2022-09-07T20:33:49.031Z,68.40
2022-09-07T20:36:19.088Z,68.60
2022-09-07T20:38:48.328Z,69.40
2022-09-07T20:41:29.281Z,71.40
2022-09-07T20:43:58.945Z,71.00
2022-09-07T20:46:25.785Z,68.80
2022-09-07T20:48:52.443Z,68.00
2022-09-07T20:51:21.058Z,68.00
2022-09-07T20:53:49.052Z,67.80
2022-09-07T20:56:24.439Z,68.80
2022-09-07T20:58:56.936Z,71.10
2022-09-07T21:01:24.039Z,72.10
2022-09-07T21:03:56.477Z,73.10
2022-09-07T21:06:24.306Z,75.30
2022-09-07T21:08:52.155Z,75.80
2022-09-07T21:11:21.186Z,76.80
2022-09-07T21:13:48.318Z,77.40
2022-09-07T21:16:16.628Z,77.70
2022-09-07T21:18:44.421Z,78.70
2022-09-07T21:21:20.403Z,79.30
2022-09-07T21:23:47.704Z,80.50
2022-09-07T21:26:14.626Z,80.80
2022-09-07T21:28:41.298Z,80.90
2022-09-07T21:31:09.314Z,79.90
2022-09-07T21:33:37.580Z,80.50
2022-09-07T21:36:13.038Z,81.50
2022-09-07T21:38:41.917Z,79.80
2022-09-07T21:41:13.575Z,77.80
2022-09-07T21:43:40.821Z,78.00
2022-09-07T21:46:12.106Z,75.20
2022-09-07T21:48:39.226Z,76.20
2022-09-07T21:51:06.591Z,75.70
2022-09-07T21:53:34.189Z,75.40
2022-09-07T21:56:07.223Z,73.70
2022-09-07T21:58:33.904Z,73.50
2022-09-07T22:01:12.231Z,73.10
2022-09-07T22:03:59.840Z,72.50
2022-09-07T22:06:29.990Z,73.20
2022-09-07T22:08:56.926Z,73.00
2022-09-07T22:11:25.880Z,73.00
2022-09-07T22:13:57.595Z,73.30
2022-09-07T22:16:24.764Z,73.60
2022-09-07T22:18:52.432Z,73.80
2022-09-07T22:21:22.673Z,73.90
2022-09-07T22:23:52.252Z,74.30
2022-09-07T22:26:20.986Z,74.80
2022-09-07T22:28:48.232Z,74.80
2022-09-07T22:31:24.045Z,75.90
2022-09-07T22:33:51.933Z,75.00
2022-09-07T22:36:25.938Z,75.10
2022-09-07T22:38:54.474Z,75.00
2022-09-07T22:41:26.930Z,74.80
2022-09-07T22:43:53.741Z,73.00
2022-09-07T22:46:22.665Z,73.90
2022-09-07T22:48:49.529Z,73.90
2022-09-07T22:51:17.215Z,73.60
2022-09-07T22:53:44.264Z,73.50
2022-09-07T22:56:16.684Z,73.60
2022-09-07T22:58:48.128Z,74.40
2022-09-07T23:01:15.382Z,74.00
2022-09-07T23:03:43.910Z,73.20
2022-09-07T23:06:32.647Z,74.10
2022-09-07T23:09:00.797Z,75.60
2022-09-07T23:11:28.432Z,76.40
2022-09-07T23:14:00.290Z,76.40
2022-09-07T23:16:27.994Z,76.40
2022-09-07T23:18:59.069Z,76.10
2022-09-07T23:21:27.310Z,75.70
2022-09-07T23:23:57.043Z,75.60
2022-09-07T23:26:27.789Z,76.20
2022-09-07T23:28:57.040Z,75.70
2022-09-07T23:31:25.610Z,75.10
2022-09-07T23:33:52.522Z,74.80
2022-09-07T23:36:19.562Z,75.30
2022-09-07T23:38:46.770Z,74.70
2022-09-07T23:41:14.130Z,74.10
2022-09-07T23:43:41.510Z,73.30
2022-09-07T23:46:09.395Z,73.50
2022-09-07T23:48:36.098Z,73.40
2022-09-07T23:51:02.885Z,73.90
2022-09-07T23:53:29.604Z,74.70
2022-09-07T23:55:56.326Z,74.90
2022-09-07T23:58:23.596Z,75.30
